Time;durP1;ratioP1;P1;durP2;ratioP2;P2;SDS_P1;SDS_P2;PMS_P1;PMS_P2;Temp;Humidity;BMP_temperature;BMP_pressure;BME280_temperature;BME280_humidity;BME280_pressure;Samples;Min_cycle;Max_cycle;Signal;HPM_P1;HPM_P2
2021/08/11 00:01:18;;;;;;;10.57;4.35;;;18.40;99.90;;;;;;6278106;28;20068;-75
2021/08/11 00:04:20;;;;;;;6.00;4.80;;;18.50;99.90;;;;;;6281088;28;20030;-75
2021/08/11 00:07:22;;;;;;;6.65;3.95;;;18.50;99.90;;;;;;6281801;28;20104;-75
2021/08/11 00:10:25;;;;;;;4.88;3.50;;;18.40;99.90;;;;;;6280666;28;20057;-76
2021/08/11 00:13:27;;;;;;;6.53;3.60;;;18.40;99.90;;;;;;6280275;28;20084;-76
2021/08/11 00:16:29;;;;;;;4.82;3.90;;;18.40;99.90;;;;;;6279806;28;20051;-75
2021/08/11 00:19:31;;;;;;;4.32;3.70;;;18.30;99.90;;;;;;6281502;28;20033;-76
2021/08/11 00:22:33;;;;;;;4.30;3.55;;;18.30;99.90;;;;;;6281887;28;20041;-75
2021/08/11 00:25:36;;;;;;;9.10;3.35;;;18.10;99.90;;;;;;6281311;28;20038;-75
2021/08/11 00:28:38;;;;;;;4.32;3.63;;;18.10;99.90;;;;;;6280160;28;20064;-75
2021/08/11 00:31:39;;;;;;;6.07;3.25;;;17.90;99.90;;;;;;6279790;28;20052;-75
2021/08/11 00:34:42;;;;;;;6.82;3.60;;;17.90;99.90;;;;;;6278978;28;20033;-75
2021/08/11 00:37:43;;;;;;;10.05;4.18;;;17.90;99.90;;;;;;6258200;28;20050;-76
2021/08/11 00:40:47;;;;;;;5.07;3.85;;;17.80;99.90;;;;;;6250133;28;20052;-76
2021/08/11 00:43:49;;;;;;;5.40;4.13;;;17.70;99.90;;;;;;6249379;28;20195;-76
2021/08/11 00:46:52;;;;;;;7.93;5.03;;;17.70;99.90;;;;;;6248766;28;20406;-76
2021/08/11 00:49:54;;;;;;;4.45;3.53;;;17.60;99.90;;;;;;6249340;28;20053;-75
2021/08/11 00:52:56;;;;;;;10.80;4.25;;;17.60;99.90;;;;;;6247989;28;20054;-76
2021/08/11 00:56:00;;;;;;;5.50;3.97;;;17.50;99.90;;;;;;6247286;28;20461;-76
2021/08/11 00:59:03;;;;;;;5.32;3.05;;;17.50;99.90;;;;;;6247835;28;20103;-75
2021/08/11 01:02:06;;;;;;;4.43;4.03;;;17.50;99.90;;;;;;6247938;28;20507;-75
2021/08/11 01:05:09;;;;;;;3.75;3.25;;;17.40;99.90;;;;;;6246957;28;20131;-75
2021/08/11 01:08:12;;;;;;;5.28;3.30;;;17.40;99.90;;;;;;6247447;28;20045;-75
2021/08/11 01:11:18;;;;;;;4.63;4.22;;;17.40;99.90;;;;;;6247287;28;20044;-75
2021/08/11 01:14:20;;;;;;;10.50;3.80;;;17.30;99.90;;;;;;6247895;28;20094;-76
2021/08/11 01:17:23;;;;;;;7.85;3.83;;;17.30;99.90;;;;;;6247046;28;20076;-76
2021/08/11 01:20:25;;;;;;;5.00;3.63;;;17.20;99.90;;;;;;6247629;28;20049;-76
2021/08/11 01:23:41;;;;;;;4.88;3.42;;;17.20;99.90;;;;;;6246821;28;20187;-75
2021/08/11 01:27:05;;;;;;;5.55;3.63;;;17.20;99.90;;;;;;6246587;28;20053;-76
2021/08/11 01:30:12;;;;;;;10.52;4.82;;;17.10;99.90;;;;;;6247575;28;20077;-76
2021/08/11 01:33:35;;;;;;;9.73;3.70;;;17.00;99.90;;;;;;6246769;28;20120;-76
2021/08/11 01:36:45;;;;;;;5.63;3.63;;;16.90;99.90;;;;;;6246351;28;20175;-76
2021/08/11 01:39:50;;;;;;;6.13;4.63;;;16.80;99.90;;;;;;6243204;28;20572;-76
2021/08/11 01:42:54;;;;;;;4.00;3.45;;;16.80;99.90;;;;;;6246593;28;20717;-76
2021/08/11 01:45:58;;;;;;;6.10;3.65;;;16.70;99.90;;;;;;6246384;28;20050;-75
2021/08/11 01:49:07;;;;;;;5.15;3.35;;;16.70;99.90;;;;;;6246714;28;20176;-75
2021/08/11 01:52:09;;;;;;;8.43;4.25;;;16.70;99.90;;;;;;6246817;28;20041;-76
2021/08/11 01:55:13;;;;;;;6.50;4.05;;;16.70;99.90;;;;;;6246144;28;20118;-76
2021/08/11 01:58:15;;;;;;;7.05;3.65;;;16.70;99.90;;;;;;6246750;28;20076;-75
2021/08/11 02:01:17;;;;;;;8.50;3.72;;;16.60;99.90;;;;;;6246107;28;20041;-76
2021/08/11 02:04:21;;;;;;;5.70;4.03;;;16.70;99.90;;;;;;6246027;28;20052;-76
2021/08/11 02:07:23;;;;;;;5.38;4.07;;;16.60;99.90;;;;;;6245814;28;20076;-76
2021/08/11 02:10:25;;;;;;;6.32;3.90;;;16.60;99.90;;;;;;6246477;28;20053;-76
2021/08/11 02:13:27;;;;;;;4.20;3.80;;;16.50;99.90;;;;;;6246048;28;20083;-76
2021/08/11 02:16:29;;;;;;;5.95;3.92;;;16.50;99.90;;;;;;6245716;28;20115;-75
2021/08/11 02:19:33;;;;;;;6.05;4.20;;;16.50;99.90;;;;;;6246008;28;20045;-75
2021/08/11 02:22:35;;;;;;;5.32;3.70;;;16.50;99.90;;;;;;6246194;28;20080;-75
2021/08/11 02:25:43;;;;;;;4.10;3.70;;;16.40;99.90;;;;;;6245752;28;20060;-75
2021/08/11 02:28:52;;;;;;;5.70;3.97;;;16.40;99.90;;;;;;6246051;28;20067;-75
2021/08/11 02:32:02;;;;;;;7.60;5.15;;;16.30;99.90;;;;;;6245810;28;20050;-75
2021/08/11 02:35:09;;;;;;;6.65;4.43;;;16.30;99.90;;;;;;6246004;28;20049;-75
2021/08/11 02:38:14;;;;;;;4.20;3.80;;;16.20;99.90;;;;;;6245109;28;20083;-76
2021/08/11 02:41:20;;;;;;;6.07;4.35;;;16.20;99.90;;;;;;6245034;28;20041;-75
2021/08/11 02:44:27;;;;;;;4.43;4.03;;;16.20;99.90;;;;;;6245483;28;20053;-75
2021/08/11 02:47:33;;;;;;;14.03;4.47;;;16.20;99.90;;;;;;6245531;28;20128;-76
2021/08/11 02:50:38;;;;;;;4.00;3.15;;;16.20;99.90;;;;;;6246190;28;20397;-76
2021/08/11 02:53:42;;;;;;;4.97;3.80;;;16.20;99.90;;;;;;6245767;28;20161;-75
2021/08/11 02:56:45;;;;;;;5.13;3.33;;;16.10;99.90;;;;;;6247679;28;20045;-75
2021/08/11 02:59:48;;;;;;;6.65;4.07;;;16.10;99.90;;;;;;6249968;28;20483;-75
2021/08/11 03:02:53;;;;;;;5.15;3.72;;;16.00;99.90;;;;;;6250446;28;20132;-76
2021/08/11 03:05:57;;;;;;;5.40;4.90;;;16.00;99.90;;;;;;6250579;28;20227;-77
2021/08/11 03:08:59;;;;;;;4.53;3.90;;;16.00;99.90;;;;;;6250241;28;20075;-77
2021/08/11 03:12:02;;;;;;;6.93;3.75;;;16.00;99.90;;;;;;6250270;28;20487;-77
2021/08/11 03:15:07;;;;;;;9.50;3.85;;;16.00;99.90;;;;;;6250269;28;20045;-76
2021/08/11 03:18:09;;;;;;;5.50;3.88;;;15.90;99.90;;;;;;6250308;28;20131;-77
2021/08/11 03:21:12;;;;;;;8.68;4.47;;;15.90;99.90;;;;;;6249947;28;20419;-77
2021/08/11 03:24:14;;;;;;;4.03;3.60;;;15.90;99.90;;;;;;6249852;28;20045;-77
2021/08/11 03:27:16;;;;;;;4.72;3.83;;;15.90;99.90;;;;;;6249382;28;20096;-77
2021/08/11 03:30:17;;;;;;;11.02;4.97;;;15.90;99.90;;;;;;6250139;28;20088;-76
2021/08/11 03:33:19;;;;;;;6.22;3.38;;;15.90;99.90;;;;;;6249371;28;20092;-77
2021/08/11 03:36:22;;;;;;;7.50;4.10;;;15.90;99.90;;;;;;6249506;28;20049;-77
2021/08/11 03:39:24;;;;;;;7.03;4.78;;;15.90;99.90;;;;;;6249083;28;20049;-76
2021/08/11 03:42:26;;;;;;;4.82;4.05;;;15.90;99.90;;;;;;6248898;28;20518;-77
2021/08/11 03:45:28;;;;;;;5.93;5.05;;;15.90;99.90;;;;;;6249361;28;20211;-77
2021/08/11 03:48:30;;;;;;;4.38;3.75;;;15.80;99.90;;;;;;6248884;28;20049;-76
2021/08/11 03:51:33;;;;;;;9.23;4.40;;;15.80;99.90;;;;;;6249071;28;20041;-76
2021/08/11 03:54:35;;;;;;;5.55;3.80;;;15.90;99.90;;;;;;6249612;28;20200;-76
2021/08/11 03:57:36;;;;;;;3.97;3.03;;;15.70;99.90;;;;;;6248867;28;20123;-76
2021/08/11 04:00:38;;;;;;;6.25;4.20;;;15.70;99.90;;;;;;6248978;28;20053;-76
2021/08/11 04:03:40;;;;;;;4.00;3.58;;;15.80;99.90;;;;;;6248532;28;20095;-77
2021/08/11 04:06:43;;;;;;;6.30;3.22;;;16.00;99.90;;;;;;6248641;28;20073;-76
2021/08/11 04:09:45;;;;;;;4.55;3.17;;;16.30;99.90;;;;;;6249015;28;20500;-76
2021/08/11 04:12:47;;;;;;;4.88;3.30;;;16.50;99.90;;;;;;6248589;28;20187;-77
2021/08/11 04:15:49;;;;;;;6.68;3.55;;;16.60;99.90;;;;;;6248252;28;20172;-77
2021/08/11 04:18:51;;;;;;;5.63;3.78;;;16.70;99.90;;;;;;6248570;28;20045;-76
2021/08/11 04:21:54;;;;;;;6.10;4.43;;;16.80;99.90;;;;;;6249178;28;20133;-77
2021/08/11 04:24:56;;;;;;;7.38;2.95;;;16.80;99.90;;;;;;6248155;28;20080;-77
2021/08/11 04:27:58;;;;;;;8.77;3.33;;;16.90;99.90;;;;;;6248203;28;20128;-76
2021/08/11 04:30:59;;;;;;;3.47;3.17;;;16.90;99.90;;;;;;6249587;28;20049;-76
2021/08/11 04:34:01;;;;;;;7.63;2.88;;;17.00;99.90;;;;;;6248856;28;20594;-77
2021/08/11 04:37:05;;;;;;;5.53;3.33;;;17.10;99.90;;;;;;6247732;28;20065;-76
2021/08/11 04:40:09;;;;;;;4.28;3.42;;;17.20;99.90;;;;;;6247344;28;20499;-76
2021/08/11 04:43:11;;;;;;;6.53;3.03;;;17.30;99.90;;;;;;6247651;28;20123;-76
2021/08/11 04:46:14;;;;;;;9.10;3.80;;;17.40;99.90;;;;;;6248261;28;20095;-76
2021/08/11 04:49:16;;;;;;;5.80;3.50;;;17.50;99.90;;;;;;6247977;28;20052;-76
2021/08/11 04:52:19;;;;;;;6.13;3.50;;;17.50;99.90;;;;;;6247619;28;20080;-76
2021/08/11 04:55:21;;;;;;;4.07;3.50;;;17.40;99.90;;;;;;6247729;28;20037;-77
2021/08/11 04:58:23;;;;;;;5.80;2.55;;;17.40;99.90;;;;;;6247546;28;20542;-76
2021/08/11 05:01:25;;;;;;;9.27;3.42;;;17.60;99.90;;;;;;6247360;28;20132;-77
2021/08/11 05:04:26;;;;;;;5.40;3.50;;;17.70;99.90;;;;;;6247270;28;20069;-77
2021/08/11 05:07:30;;;;;;;3.55;3.25;;;17.60;99.90;;;;;;6247419;28;20148;-76
2021/08/11 05:10:31;;;;;;;7.40;3.53;;;17.70;99.90;;;;;;6247663;28;20196;-76
2021/08/11 05:13:33;;;;;;;4.80;2.88;;;17.70;99.90;;;;;;6246989;28;20111;-77
2021/08/11 05:16:35;;;;;;;6.57;3.55;;;17.70;99.90;;;;;;6246806;28;20175;-75
2021/08/11 05:19:37;;;;;;;8.50;2.78;;;17.70;99.90;;;;;;6246675;28;20089;-76
2021/08/11 05:22:40;;;;;;;3.30;3.00;;;17.90;99.90;;;;;;6246927;28;20100;-77
2021/08/11 05:25:42;;;;;;;7.07;3.13;;;17.90;99.90;;;;;;6246893;28;20481;-77
2021/08/11 05:28:44;;;;;;;4.47;2.22;;;18.10;99.80;;;;;;6247002;28;20130;-77
2021/08/11 05:31:46;;;;;;;5.80;3.28;;;18.10;99.60;;;;;;6246850;28;20076;-77
2021/08/11 05:34:48;;;;;;;10.20;4.75;;;18.20;99.70;;;;;;6246960;28;20049;-77
2021/08/11 05:37:51;;;;;;;20.88;4.13;;;18.20;99.80;;;;;;6247081;28;20045;-77
2021/08/11 05:40:53;;;;;;;16.10;4.32;;;18.40;99.40;;;;;;6246240;28;20171;-77
2021/08/11 05:43:55;;;;;;;20.67;4.57;;;18.40;99.20;;;;;;6245960;28;20045;-77
2021/08/11 05:46:57;;;;;;;10.27;4.38;;;18.50;99.10;;;;;;6246015;28;20402;-77
2021/08/11 05:49:58;;;;;;;10.15;3.85;;;18.60;99.20;;;;;;6246891;28;20721;-77
2021/08/11 05:53:02;;;;;;;7.57;3.40;;;18.70;99.00;;;;;;6246357;28;20059;-77
2021/08/11 05:56:05;;;;;;;12.48;4.30;;;18.90;98.80;;;;;;6246167;28;20458;-77
2021/08/11 05:59:06;;;;;;;10.70;4.70;;;19.00;98.60;;;;;;6246889;28;20191;-77
2021/08/11 06:02:08;;;;;;;10.13;3.67;;;19.20;98.30;;;;;;6246761;28;20135;-77
2021/08/11 06:05:11;;;;;;;9.10;3.40;;;19.40;98.00;;;;;;6248635;28;20139;-77
2021/08/11 06:08:14;;;;;;;6.22;3.75;;;19.70;97.40;;;;;;6254572;28;20125;-77
2021/08/11 06:11:16;;;;;;;10.00;3.20;;;19.90;96.80;;;;;;6269039;28;20047;-77
2021/08/11 06:14:18;;;;;;;8.27;3.90;;;20.10;96.10;;;;;;6257559;28;20046;-76
2021/08/11 06:17:20;;;;;;;10.02;5.65;;;20.30;95.50;;;;;;6245578;28;20118;-76
2021/08/11 06:20:23;;;;;;;5.60;2.97;;;20.50;94.90;;;;;;6245398;28;20049;-77
2021/08/11 06:23:26;;;;;;;7.85;3.85;;;20.70;93.90;;;;;;6263609;28;20045;-76
2021/08/11 06:26:28;;;;;;;7.28;3.72;;;21.00;92.80;;;;;;6270535;28;20710;-76
2021/08/11 06:29:30;;;;;;;6.07;4.50;;;21.10;91.70;;;;;;6269987;28;20053;-77
2021/08/11 06:32:32;;;;;;;4.97;3.80;;;21.30;90.90;;;;;;6274375;28;20077;-77
2021/08/11 06:35:34;;;;;;;9.10;3.83;;;21.40;90.30;;;;;;6275311;28;20366;-76
2021/08/11 06:38:37;;;;;;;6.22;3.30;;;21.70;89.30;;;;;;6272805;28;20561;-77
2021/08/11 06:41:39;;;;;;;4.53;3.55;;;22.00;88.00;;;;;;6250619;28;20095;-77
2021/08/11 06:44:41;;;;;;;6.60;3.83;;;22.20;86.70;;;;;;6249314;28;20080;-77
2021/08/11 06:47:43;;;;;;;5.22;4.05;;;22.40;85.80;;;;;;6250188;28;20520;-76
2021/08/11 06:50:45;;;;;;;5.25;3.13;;;22.60;83.90;;;;;;6250286;28;20050;-77
2021/08/11 06:53:48;;;;;;;7.75;3.28;;;22.70;82.40;;;;;;6251023;28;20131;-76
2021/08/11 06:56:50;;;;;;;3.55;2.78;;;22.90;81.40;;;;;;6249935;28;20109;-74
2021/08/11 06:59:51;;;;;;;9.10;3.42;;;23.30;80.20;;;;;;6250611;28;20076;-77
2021/08/11 07:02:53;;;;;;;7.95;3.53;;;23.50;79.00;;;;;;6249714;28;20123;-76
2021/08/11 07:05:55;;;;;;;5.40;2.60;;;23.70;77.70;;;;;;6250561;28;20095;-74
2021/08/11 07:08:58;;;;;;;8.82;3.42;;;24.00;77.10;;;;;;6249688;28;20183;-77
2021/08/11 07:12:02;;;;;;;10.57;3.90;;;24.10;75.60;;;;;;6249847;28;20136;-76
2021/08/11 07:15:05;;;;;;;8.38;3.72;;;24.30;75.50;;;;;;6250925;28;20100;-77
2021/08/11 07:18:07;;;;;;;6.60;3.28;;;24.50;74.00;;;;;;6250200;28;20478;-76
2021/08/11 07:21:09;;;;;;;4.70;2.97;;;24.80;72.80;;;;;;6250389;28;20053;-77
2021/08/11 07:24:12;;;;;;;5.03;2.85;;;25.00;71.00;;;;;;6250205;28;20068;-77
2021/08/11 07:27:14;;;;;;;7.68;3.20;;;25.20;70.10;;;;;;6249880;28;20045;-77
2021/08/11 07:30:17;;;;;;;7.40;3.30;;;25.60;68.90;;;;;;6250708;28;20136;-76
2021/08/11 07:33:19;;;;;;;3.38;3.08;;;25.70;67.70;;;;;;6249729;28;20049;-77
2021/08/11 07:36:20;;;;;;;7.25;3.47;;;25.70;67.60;;;;;;6249443;28;20055;-77
2021/08/11 07:39:24;;;;;;;6.68;3.35;;;25.80;66.90;;;;;;6249478;28;20451;-77
2021/08/11 07:42:25;;;;;;;6.22;2.75;;;26.00;66.60;;;;;;6249532;28;20131;-77
2021/08/11 07:45:29;;;;;;;4.18;2.55;;;26.20;66.10;;;;;;6243267;28;20050;-78
2021/08/11 07:48:31;;;;;;;5.03;3.10;;;26.40;65.00;;;;;;6249313;28;20462;-76
2021/08/11 07:51:33;;;;;;;6.82;3.15;;;26.50;64.60;;;;;;6249487;28;20092;-76
2021/08/11 07:54:36;;;;;;;5.95;4.00;;;26.70;63.70;;;;;;6249758;28;20118;-76
2021/08/11 07:57:39;;;;;;;7.75;3.70;;;26.90;63.10;;;;;;6249371;28;20554;-76
2021/08/11 08:00:41;;;;;;;3.83;2.92;;;26.90;62.50;;;;;;6249109;28;20195;-77
2021/08/11 08:03:42;;;;;;;6.32;4.95;;;26.90;62.20;;;;;;6249029;28;20178;-77
2021/08/11 08:06:44;;;;;;;6.03;3.83;;;26.90;62.60;;;;;;6249253;28;20050;-77
2021/08/11 08:09:47;;;;;;;9.00;4.45;;;27.00;62.60;;;;;;6249803;28;20132;-77
2021/08/11 08:12:49;;;;;;;5.50;4.15;;;26.90;62.80;;;;;;6250211;28;20519;-76
2021/08/11 08:15:52;;;;;;;8.38;3.60;;;27.00;62.50;;;;;;6247726;28;20138;-77
2021/08/11 08:18:54;;;;;;;5.13;3.70;;;26.90;62.70;;;;;;6248768;28;20128;-77
2021/08/11 08:21:56;;;;;;;4.28;2.88;;;27.00;61.80;;;;;;6248866;28;20569;-76
2021/08/11 08:24:59;;;;;;;6.68;3.40;;;27.10;61.80;;;;;;6248775;28;20175;-76
2021/08/11 08:28:01;;;;;;;5.47;3.58;;;27.20;61.70;;;;;;6249961;28;20099;-77
2021/08/11 08:31:02;;;;;;;3.50;2.55;;;27.20;61.20;;;;;;6249749;28;20076;-76
2021/08/11 08:34:04;;;;;;;6.70;4.50;;;27.30;61.70;;;;;;6249370;28;20071;-76
2021/08/11 08:37:06;;;;;;;9.48;4.05;;;27.40;61.10;;;;;;6248792;28;20111;-76
2021/08/11 08:40:12;;;;;;;7.32;3.67;;;27.50;60.80;;;;;;6247654;28;20053;-76
2021/08/11 08:43:14;;;;;;;8.05;3.60;;;27.60;60.30;;;;;;6249753;28;20073;-76
2021/08/11 08:46:17;;;;;;;9.82;3.83;;;27.60;60.10;;;;;;6242659;28;20045;-76
2021/08/11 08:49:20;;;;;;;5.00;3.92;;;27.70;60.00;;;;;;6247885;28;20041;-76
2021/08/11 08:52:22;;;;;;;6.65;2.90;;;27.80;59.80;;;;;;6247916;28;20864;-76
2021/08/11 08:55:25;;;;;;;8.60;4.03;;;28.00;59.20;;;;;;6247106;28;20124;-76
2021/08/11 08:58:27;;;;;;;6.30;5.40;;;28.10;58.80;;;;;;6248356;28;20049;-76
2021/08/11 09:01:29;;;;;;;6.50;4.55;;;28.20;58.90;;;;;;6247669;28;20499;-76
2021/08/11 09:04:31;;;;;;;15.35;5.55;;;28.20;59.20;;;;;;6248026;28;20099;-76
2021/08/11 09:07:33;;;;;;;6.28;3.20;;;28.10;58.40;;;;;;6247188;28;20120;-76
2021/08/11 09:10:39;;;;;;;11.02;4.13;;;28.10;58.80;;;;;;6247294;28;20644;-76
2021/08/11 09:13:40;;;;;;;8.57;4.88;;;28.30;58.90;;;;;;6258030;28;20132;-76
2021/08/11 09:16:46;;;;;;;7.35;4.07;;;28.40;58.00;;;;;;6271364;28;20044;-76
2021/08/11 09:19:48;;;;;;;10.30;5.50;;;28.40;58.20;;;;;;6271847;28;20131;-76
2021/08/11 09:22:52;;;;;;;7.85;5.22;;;28.40;57.80;;;;;;6271593;28;20056;-76
2021/08/11 09:26:00;;;;;;;17.67;6.05;;;28.40;58.70;;;;;;6272054;28;20135;-76
2021/08/11 09:29:06;;;;;;;5.53;3.78;;;28.40;58.50;;;;;;6271489;28;20044;-76
2021/08/11 09:32:12;;;;;;;10.00;4.35;;;28.60;58.70;;;;;;6271498;28;20049;-76
2021/08/11 09:35:15;;;;;;;8.93;5.28;;;28.80;57.70;;;;;;6271250;28;20094;-76
2021/08/11 09:38:17;;;;;;;8.07;4.10;;;28.70;57.40;;;;;;6271183;28;20495;-76
2021/08/11 09:41:20;;;;;;;9.32;3.50;;;28.50;58.30;;;;;;6270981;28;20095;-76
2021/08/11 09:44:23;;;;;;;11.13;5.35;;;28.40;58.70;;;;;;6271513;28;20044;-76
2021/08/11 09:47:25;;;;;;;10.63;4.22;;;28.60;58.60;;;;;;6241758;28;20064;-76
2021/08/11 09:50:39;;;;;;;6.32;4.07;;;28.90;58.10;;;;;;6247199;28;20184;-76
2021/08/11 09:53:42;;;;;;;9.38;4.40;;;29.10;57.90;;;;;;6246250;28;20124;-76
2021/08/11 09:56:46;;;;;;;7.43;3.67;;;29.30;56.50;;;;;;6246307;28;20127;-75
2021/08/11 09:59:56;;;;;;;6.47;4.57;;;29.40;55.90;;;;;;6246160;28;20045;-76
2021/08/11 10:03:08;;;;;;;5.53;3.55;;;29.70;55.40;;;;;;6246141;28;20068;-76
2021/08/11 10:06:24;;;;;;;9.25;4.63;;;29.90;55.10;;;;;;6246224;28;20495;-77
2021/08/11 10:09:27;;;;;;;9.43;3.70;;;30.00;54.50;;;;;;6248521;28;20041;-77
2021/08/11 10:12:32;;;;;;;7.55;3.85;;;30.00;54.10;;;;;;6247042;28;20072;-77
2021/08/11 10:15:34;;;;;;;8.60;4.22;;;30.00;54.10;;;;;;6272697;28;20549;-77
2021/08/11 10:18:40;;;;;;;4.40;3.80;;;30.10;53.00;;;;;;6273675;28;20187;-78
2021/08/11 10:21:47;;;;;;;6.50;3.53;;;30.00;53.50;;;;;;6262174;28;20499;-77
2021/08/11 10:24:50;;;;;;;5.27;3.70;;;30.00;53.40;;;;;;6246598;28;20574;-76
2021/08/11 10:27:53;;;;;;;3.28;2.75;;;30.10;52.80;;;;;;6245746;28;20053;-76
2021/08/11 10:30:55;;;;;;;4.65;3.10;;;30.40;52.00;;;;;;6245881;28;20085;-76
2021/08/11 10:34:00;;;;;;;5.28;3.20;;;30.60;51.80;;;;;;6247630;28;20191;-77
2021/08/11 10:37:03;;;;;;;3.45;3.03;;;30.70;50.20;;;;;;6245961;28;20060;-76
2021/08/11 10:40:05;;;;;;;8.85;3.95;;;30.60;51.10;;;;;;6245635;28;20124;-76
2021/08/11 10:43:11;;;;;;;4.32;2.65;;;30.60;50.90;;;;;;6246098;28;20140;-77
2021/08/11 10:46:17;;;;;;;4.88;3.05;;;30.80;51.30;;;;;;6238941;28;20042;-76
2021/08/11 10:49:19;;;;;;;6.18;3.63;;;30.80;50.80;;;;;;6238264;28;20081;-76
2021/08/11 10:52:22;;;;;;;3.42;2.75;;;30.80;50.80;;;;;;6245483;28;20392;-77
2021/08/11 10:55:42;;;;;;;5.45;3.78;;;30.80;50.70;;;;;;6246129;28;20042;-77
2021/08/11 10:58:47;;;;;;;7.30;3.00;;;30.80;51.00;;;;;;6247248;28;20046;-78
2021/08/11 11:01:49;;;;;;;7.38;2.70;;;30.90;50.30;;;;;;6248032;28;20045;-77
2021/08/11 11:04:51;;;;;;;3.45;1.92;;;30.70;49.70;;;;;;6246244;28;20546;-77
2021/08/11 11:08:33;;;;;;;3.75;2.83;;;30.70;49.50;;;;;;6245451;28;20511;-76
2021/08/11 11:11:39;;;;;;;4.22;2.20;;;30.90;48.30;;;;;;6246588;28;20124;-77
2021/08/11 11:14:55;;;;;;;3.80;2.40;;;31.00;47.90;;;;;;6263905;28;20083;-77
2021/08/11 11:18:11;;;;;;;5.03;2.30;;;31.20;47.80;;;;;;6273335;28;20064;-77
2021/08/11 11:21:31;;;;;;;5.15;2.33;;;31.50;47.40;;;;;;6274599;28;20049;-77
2021/08/11 11:24:50;;;;;;;4.70;2.42;;;31.70;47.10;;;;;;6274126;28;20060;-76
2021/08/11 11:27:58;;;;;;;9.50;2.53;;;31.80;47.30;;;;;;6273799;28;20078;-76
2021/08/11 11:31:01;;;;;;;5.00;2.53;;;31.90;46.40;;;;;;6274070;28;20694;-77
2021/08/11 11:34:21;;;;;;;2.95;2.17;;;31.90;47.20;;;;;;6274571;28;20106;-77
2021/08/11 11:37:30;;;;;;;4.53;2.85;;;32.00;47.40;;;;;;6273747;28;20526;-77
2021/08/11 11:40:32;;;;;;;6.15;2.45;;;32.10;46.80;;;;;;6273963;28;20064;-77
2021/08/11 11:43:34;;;;;;;4.35;2.72;;;32.20;46.60;;;;;;6273932;28;20178;-77
2021/08/11 11:46:48;;;;;;;6.43;2.40;;;32.30;46.40;;;;;;6271332;28;20087;-77
2021/08/11 11:50:27;;;;;;;4.07;2.40;;;32.50;45.70;;;;;;6245350;28;20095;-77
2021/08/11 11:53:32;;;;;;;3.13;2.30;;;32.70;45.90;;;;;;6248971;28;20045;-77
2021/08/11 11:56:34;;;;;;;2.92;2.15;;;32.90;45.00;;;;;;6252006;28;20041;-78
2021/08/11 11:59:37;;;;;;;3.63;2.92;;;32.80;45.10;;;;;;6252782;28;20499;-78
2021/08/11 12:02:41;;;;;;;4.65;3.20;;;32.60;45.60;;;;;;6250475;28;20080;-77
2021/08/11 12:05:46;;;;;;;3.30;2.28;;;32.50;45.90;;;;;;6250761;28;20092;-78
2021/08/11 12:08:56;;;;;;;1.50;1.30;;;32.70;44.40;;;;;;6249835;28;20057;-76
2021/08/11 12:11:58;;;;;;;2.53;2.22;;;32.80;43.80;;;;;;6250185;28;20060;-77
2021/08/11 12:15:17;;;;;;;2.33;1.90;;;32.90;43.50;;;;;;6269225;28;20787;-77
2021/08/11 12:18:21;;;;;;;3.55;2.60;;;33.00;43.40;;;;;;6273679;28;20056;-77
2021/08/11 12:21:23;;;;;;;3.65;2.00;;;33.10;44.20;;;;;;6275133;28;20045;-77
2021/08/11 12:24:25;;;;;;;3.65;2.83;;;33.30;44.60;;;;;;6273798;28;20590;-78
2021/08/11 12:27:27;;;;;;;2.38;1.52;;;33.30;44.30;;;;;;6275058;28;20041;-77
2021/08/11 12:30:29;;;;;;;3.53;2.00;;;33.40;42.90;;;;;;6273239;28;20082;-77
2021/08/11 12:33:36;;;;;;;2.25;2.05;;;33.50;42.70;;;;;;6275970;28;20068;-77
2021/08/11 12:36:41;;;;;;;4.30;2.17;;;33.60;41.70;;;;;;6273261;28;20049;-77
2021/08/11 12:39:43;;;;;;;3.22;2.08;;;33.60;41.20;;;;;;6272748;28;20044;-76
2021/08/11 12:42:53;;;;;;;3.58;2.85;;;33.80;41.70;;;;;;6273552;28;20664;-78
2021/08/11 12:45:56;;;;;;;2.33;2.00;;;33.80;42.40;;;;;;6275124;28;20056;-77
2021/08/11 12:49:14;;;;;;;2.65;1.98;;;33.80;41.60;;;;;;6259365;28;20045;-76
2021/08/11 12:52:18;;;;;;;3.20;2.40;;;33.80;42.30;;;;;;6247364;28;20057;-77
2021/08/11 12:55:31;;;;;;;2.63;2.13;;;33.80;41.50;;;;;;6247892;28;20042;-76
2021/08/11 12:59:12;;;;;;;4.25;2.22;;;33.90;40.40;;;;;;6248159;28;20057;-77
2021/08/11 13:02:24;;;;;;;3.10;2.53;;;33.90;40.40;;;;;;6248701;28;20053;-76
2021/08/11 13:05:27;;;;;;;2.15;1.70;;;33.80;40.50;;;;;;6247917;28;20136;-76
2021/08/11 13:08:39;;;;;;;3.38;2.38;;;33.90;41.00;;;;;;6249660;28;20049;-78
2021/08/11 13:11:52;;;;;;;5.43;2.38;;;33.90;42.40;;;;;;6248265;28;20132;-77
2021/08/11 13:14:57;;;;;;;4.07;2.28;;;34.00;40.80;;;;;;6270626;28;20122;-76
2021/08/11 13:18:01;;;;;;;2.92;2.42;;;34.10;40.40;;;;;;6271503;28;20627;-77
2021/08/11 13:21:04;;;;;;;2.90;2.08;;;34.00;40.40;;;;;;6271452;28;20041;-76
2021/08/11 13:24:07;;;;;;;4.68;3.10;;;34.00;40.20;;;;;;6270930;28;20120;-77
2021/08/11 13:27:08;;;;;;;3.55;2.25;;;34.10;40.00;;;;;;6271365;28;20120;-76
2021/08/11 13:30:12;;;;;;;3.10;2.50;;;34.00;40.20;;;;;;6271383;28;20178;-76
2021/08/11 13:33:13;;;;;;;5.20;2.47;;;33.60;41.00;;;;;;6270697;28;20049;-76
2021/08/11 13:36:17;;;;;;;8.88;3.38;;;33.70;41.40;;;;;;6270920;28;20132;-76
2021/08/11 13:39:18;;;;;;;2.60;2.40;;;33.60;41.00;;;;;;6270829;28;20116;-77
2021/08/11 13:42:23;;;;;;;6.93;2.40;;;33.70;41.20;;;;;;6271528;28;20640;-77
2021/08/11 13:45:25;;;;;;;5.38;2.53;;;33.80;40.70;;;;;;6270386;28;20045;-77
2021/08/11 13:48:26;;;;;;;5.55;2.63;;;34.10;40.70;;;;;;6271703;28;20498;-77
2021/08/11 13:51:29;;;;;;;2.85;2.28;;;34.30;40.40;;;;;;6241991;28;20568;-77
2021/08/11 13:54:31;;;;;;;3.85;2.70;;;34.30;40.20;;;;;;6246328;28;20127;-76
2021/08/11 13:57:34;;;;;;;4.13;2.70;;;34.30;40.90;;;;;;6247984;28;20049;-78
2021/08/11 14:00:35;;;;;;;3.28;2.80;;;34.20;39.70;;;;;;6249327;28;20057;-77
2021/08/11 14:03:37;;;;;;;3.38;2.30;;;34.10;39.80;;;;;;6246574;28;20098;-77
2021/08/11 14:06:40;;;;;;;5.57;2.55;;;34.10;40.20;;;;;;6249799;28;20111;-78
2021/08/11 14:09:42;;;;;;;2.83;2.40;;;34.20;39.30;;;;;;6249962;28;20633;-77
2021/08/11 14:12:44;;;;;;;5.70;3.83;;;34.40;38.00;;;;;;6251520;28;20049;-77
2021/08/11 14:15:46;;;;;;;4.38;2.67;;;34.60;37.80;;;;;;6273651;28;20045;-76
2021/08/11 14:18:48;;;;;;;5.15;2.95;;;34.60;37.60;;;;;;6276314;28;20133;-78
2021/08/11 14:21:51;;;;;;;6.13;3.05;;;34.80;38.00;;;;;;6274826;28;20045;-77
2021/08/11 14:24:53;;;;;;;5.57;2.70;;;34.80;37.60;;;;;;6273554;28;20049;-78
2021/08/11 14:27:55;;;;;;;3.00;2.45;;;34.80;37.10;;;;;;6274964;28;20044;-79
2021/08/11 14:30:57;;;;;;;3.85;2.80;;;34.80;37.10;;;;;;6274122;28;20048;-78
2021/08/11 14:33:58;;;;;;;3.33;2.33;;;34.80;37.90;;;;;;6274906;28;20133;-79
2021/08/11 14:37:02;;;;;;;4.53;2.60;;;34.70;37.10;;;;;;6274548;28;20199;-79
2021/08/11 14:40:05;;;;;;;5.10;3.30;;;34.70;36.60;;;;;;6274631;28;20264;-78
2021/08/11 14:43:07;;;;;;;3.00;2.70;;;34.60;36.20;;;;;;6273899;28;20041;-78
2021/08/11 14:46:09;;;;;;;4.45;2.15;;;34.70;36.40;;;;;;6274409;28;20112;-79
2021/08/11 14:49:11;;;;;;;4.97;2.63;;;34.80;36.30;;;;;;6274124;28;20414;-78
2021/08/11 14:52:14;;;;;;;4.18;2.78;;;34.70;37.10;;;;;;6245630;28;20056;-79
2021/08/11 14:55:16;;;;;;;2.92;2.50;;;34.50;37.40;;;;;;6255114;28;20164;-78
2021/08/11 14:58:18;;;;;;;3.60;2.78;;;34.30;38.60;;;;;;6253990;28;20049;-79
2021/08/11 15:01:20;;;;;;;4.78;3.03;;;34.00;39.60;;;;;;6254963;28;20061;-78
2021/08/11 15:04:22;;;;;;;4.20;2.80;;;33.70;39.70;;;;;;6252843;28;20515;-78
2021/08/11 15:07:25;;;;;;;11.63;3.58;;;33.40;40.20;;;;;;6252214;28;20124;-78
2021/08/11 15:10:27;;;;;;;3.80;3.38;;;33.10;41.60;;;;;;6252383;28;20091;-76
2021/08/11 15:13:29;;;;;;;3.28;2.85;;;32.70;42.90;;;;;;6260228;28;20072;-78
2021/08/11 15:16:30;;;;;;;4.47;3.17;;;32.40;43.10;;;;;;6275582;28;20045;-78
2021/08/11 15:19:32;;;;;;;5.45;4.70;;;32.10;43.20;;;;;;6275928;28;20418;-77
2021/08/11 15:22:38;;;;;;;5.40;4.90;;;31.90;43.30;;;;;;6277183;28;20052;-77
2021/08/11 15:25:39;;;;;;;4.72;3.08;;;31.70;44.30;;;;;;6278557;28;20057;-77
2021/08/11 15:28:42;;;;;;;5.55;3.42;;;31.50;44.80;;;;;;6278999;28;20052;-77
2021/08/11 15:31:44;;;;;;;9.07;5.53;;;31.30;45.30;;;;;;6278508;28;20052;-78
2021/08/11 15:34:46;;;;;;;7.20;4.55;;;31.30;45.00;;;;;;6278322;28;20495;-78
2021/08/11 15:37:49;;;;;;;4.93;3.33;;;31.30;43.60;;;;;;6278919;28;20103;-78
2021/08/11 15:40:51;;;;;;;2.88;2.47;;;31.50;43.60;;;;;;6278378;28;20045;-78
2021/08/11 15:43:53;;;;;;;4.82;2.97;;;31.40;43.50;;;;;;6278076;28;20083;-78
2021/08/11 15:46:54;;;;;;;3.50;2.65;;;31.30;44.10;;;;;;6261262;28;20140;-78
2021/08/11 15:49:56;;;;;;;4.40;2.58;;;31.20;44.40;;;;;;6253638;28;20522;-77
2021/08/11 15:52:59;;;;;;;3.75;3.05;;;31.10;44.50;;;;;;6250874;28;20045;-78
2021/08/11 15:56:01;;;;;;;6.60;2.83;;;31.00;45.00;;;;;;6251078;28;20059;-77